createdAt,value
2024-03-05T00:00:25.174Z,102219.77
2024-03-05T00:03:16.684Z,102217.86
2024-03-05T00:05:46.655Z,102219.52
2024-03-05T00:08:16.923Z,102218.16
2024-03-05T00:10:46.614Z,102218.73
2024-03-05T00:13:17.973Z,102220.03
2024-03-05T00:15:46.427Z,102220.27
2024-03-05T00:18:16.095Z,102220.52
2024-03-05T00:20:44.987Z,102222.36
2024-03-05T00:23:15.983Z,102218.64
2024-03-05T00:25:45.107Z,102222.13
2024-03-05T00:28:16.919Z,102227.05
2024-03-05T00:30:47.175Z,102228.69
2024-03-05T00:33:18.124Z,102228.95
2024-03-05T00:35:47.996Z,102232.55
2024-03-05T00:38:25.256Z,102231.02
2024-03-05T00:41:04.457Z,102238.09
2024-03-05T00:43:34.088Z,102241.03
2024-03-05T00:46:04.382Z,102241.21
2024-03-05T00:48:33.043Z,102244.75
2024-03-05T00:51:04.790Z,102244.42
2024-03-05T00:53:33.110Z,102246.79
2024-03-05T00:56:04.140Z,102246.47
2024-03-05T00:58:34.000Z,102247.39
2024-03-05T01:01:03.755Z,102246.52
2024-03-05T01:03:32.062Z,102244.61
2024-03-05T01:06:01.734Z,102243.93
2024-03-05T01:08:31.366Z,102243.98
2024-03-05T01:11:01.049Z,102245.48
2024-03-05T01:13:30.273Z,102244.77
2024-03-05T01:16:01.931Z,102247.35
2024-03-05T01:18:30.342Z,102246.32
2024-03-05T01:20:59.932Z,102248.72
2024-03-05T01:23:28.194Z,102248.75
2024-03-05T01:25:58.387Z,102244.11
2024-03-05T01:28:28.007Z,102246.88
2024-03-05T01:31:01.168Z,102246.74
2024-03-05T01:33:30.338Z,102247.86
2024-03-05T01:36:00.281Z,102251.33
2024-03-05T01:38:29.504Z,102248.86
2024-03-05T01:41:00.757Z,102249.97
2024-03-05T01:43:29.777Z,102250.74
2024-03-05T01:46:00.450Z,102249.17
2024-03-05T01:48:30.430Z,102249.03
2024-03-05T01:51:01.645Z,102249.95
2024-03-05T01:53:30.555Z,102250.16
2024-03-05T01:56:01.476Z,102248.40
2024-03-05T01:58:30.665Z,102246.96
2024-03-05T02:01:02.632Z,102245.02
2024-03-05T02:03:32.306Z,102247.23
2024-03-05T02:06:06.988Z,102245.29
2024-03-05T02:08:37.058Z,102246.20
2024-03-05T02:11:09.643Z,102245.34
2024-03-05T02:13:40.713Z,102246.98
2024-03-05T02:16:12.280Z,102245.20
2024-03-05T02:18:40.650Z,102243.08
2024-03-05T02:21:20.553Z,102240.25
2024-03-05T02:23:52.498Z,102241.91
2024-03-05T02:26:24.659Z,102245.73
2024-03-05T02:28:55.609Z,102246.27
2024-03-05T02:31:24.872Z,102245.95
2024-03-05T02:33:58.114Z,102242.36
2024-03-05T02:36:26.435Z,102246.34
2024-03-05T02:38:56.211Z,102245.48
2024-03-05T02:41:24.665Z,102246.23
2024-03-05T02:43:56.239Z,102245.76
2024-03-05T02:46:25.236Z,102245.76
2024-03-05T02:48:56.261Z,102247.77
2024-03-05T02:51:26.280Z,102246.55
2024-03-05T02:53:57.007Z,102250.40
2024-03-05T02:56:25.298Z,102250.77
2024-03-05T02:58:55.001Z,102247.55
2024-03-05T03:01:23.791Z,102251.58
2024-03-05T03:03:53.391Z,102251.10
2024-03-05T03:06:21.731Z,102250.80
2024-03-05T03:08:52.709Z,102246.85
2024-03-05T03:11:23.529Z,102255.34
2024-03-05T03:13:53.552Z,102249.65
2024-03-05T03:16:24.101Z,102250.02
2024-03-05T03:18:56.965Z,102252.60
2024-03-05T03:21:25.817Z,102249.42
2024-03-05T03:23:56.899Z,102257.19
2024-03-05T03:26:27.450Z,102253.45
2024-03-05T03:28:58.847Z,102255.08
2024-03-05T03:31:27.300Z,102255.27
2024-03-05T03:33:56.829Z,102259.96
2024-03-05T03:36:27.248Z,102255.70
2024-03-05T03:38:57.406Z,102255.56
2024-03-05T03:41:28.767Z,102256.11
2024-03-05T03:43:59.224Z,102255.77
2024-03-05T03:46:28.798Z,102261.02
2024-03-05T03:48:58.391Z,102259.60
2024-03-05T03:51:27.678Z,102258.54
2024-03-05T03:53:57.320Z,102258.02
2024-03-05T03:56:26.439Z,102254.08
2024-03-05T03:58:57.038Z,102259.13
2024-03-05T04:01:27.169Z,102260.63
2024-03-05T04:03:57.528Z,102263.53
2024-03-05T04:06:26.130Z,102263.38
2024-03-05T04:08:57.503Z,102272.43
2024-03-05T04:11:28.046Z,102268.30
2024-03-05T04:14:00.593Z,102271.75
2024-03-05T04:16:33.397Z,102279.14
2024-03-05T04:19:04.623Z,102279.50
2024-03-05T04:21:45.699Z,102284.38
2024-03-05T04:24:16.944Z,102286.52
2024-03-05T04:26:45.762Z,102291.22
2024-03-05T04:29:15.264Z,102294.83
2024-03-05T04:31:50.620Z,102296.65
2024-03-05T04:34:24.958Z,102294.50
2024-03-05T04:36:57.919Z,102297.20
2024-03-05T04:39:29.617Z,102299.02
2024-03-05T04:42:00.178Z,102299.17
2024-03-05T04:44:30.183Z,102298.61
2024-03-05T04:46:58.483Z,102302.05
2024-03-05T04:49:28.969Z,102303.46
2024-03-05T04:51:58.493Z,102302.23
2024-03-05T04:54:30.293Z,102302.75
2024-03-05T04:56:58.583Z,102311.02
2024-03-05T04:59:29.336Z,102306.02
2024-03-05T05:01:57.651Z,102309.08
2024-03-05T05:04:27.303Z,102313.05
2024-03-05T05:06:56.818Z,102317.75
2024-03-05T05:09:26.418Z,102319.03
2024-03-05T05:11:55.932Z,102323.20
2024-03-05T05:14:25.643Z,102324.64
2024-03-05T05:16:56.365Z,102329.66
2024-03-05T05:19:28.514Z,102326.65
2024-03-05T05:21:58.691Z,102330.77
2024-03-05T05:24:30.552Z,102328.79
2024-03-05T05:26:59.235Z,102326.63
2024-03-05T05:29:37.056Z,102327.34
2024-03-05T05:32:13.085Z,102325.20
2024-03-05T05:34:41.437Z,102323.59
2024-03-05T05:37:11.890Z,102330.60
2024-03-05T05:39:41.510Z,102334.39
2024-03-05T05:42:11.314Z,102335.48
2024-03-05T05:44:39.586Z,102342.88
2024-03-05T05:47:11.912Z,102340.34
2024-03-05T05:49:41.442Z,102343.95
2024-03-05T05:52:12.189Z,102353.15
2024-03-05T05:54:42.099Z,102352.24
2024-03-05T05:57:11.717Z,102353.34
2024-03-05T05:59:40.619Z,102345.48
2024-03-05T06:02:12.838Z,102348.89
2024-03-05T06:04:42.864Z,102357.19
2024-03-05T06:07:12.976Z,102359.16
2024-03-05T06:09:42.873Z,102355.23
2024-03-05T06:12:11.675Z,102355.64
2024-03-05T06:14:40.034Z,102362.81
2024-03-05T06:17:11.148Z,102364.27
2024-03-05T06:19:40.521Z,102363.59
2024-03-05T06:22:14.103Z,102368.25
2024-03-05T06:24:51.515Z,102376.01
2024-03-05T06:27:19.852Z,102376.20
2024-03-05T06:29:48.489Z,102374.18
2024-03-05T06:32:19.721Z,102378.67
2024-03-05T06:34:49.355Z,102376.91
2024-03-05T06:37:19.545Z,102379.64
2024-03-05T06:39:50.697Z,102382.52
2024-03-05T06:42:19.560Z,102385.59
2024-03-05T06:44:51.698Z,102387.23
2024-03-05T06:47:19.982Z,102393.73
2024-03-05T06:49:52.414Z,102397.30
2024-03-05T06:52:21.022Z,102392.40
2024-03-05T07:07:48.334Z,102396.92
2024-03-05T07:10:17.010Z,102397.38
2024-03-05T07:12:46.996Z,102397.17
2024-03-05T07:15:16.931Z,102398.52
2024-03-05T07:17:48.391Z,102393.37
2024-03-05T07:20:16.865Z,102399.95
2024-03-05T07:22:49.407Z,102409.39
2024-03-05T07:25:19.009Z,102402.61
2024-03-05T07:27:50.857Z,102403.50
2024-03-05T07:30:22.143Z,102406.20
2024-03-05T07:32:51.721Z,102400.97
2024-03-05T07:35:21.061Z,102399.64
2024-03-05T07:37:50.709Z,102405.86
2024-03-05T07:40:21.784Z,102405.61
2024-03-05T07:42:55.605Z,102406.91
2024-03-05T07:45:24.601Z,102406.59
2024-03-05T07:47:55.457Z,102407.90
2024-03-05T07:50:25.660Z,102408.48
2024-03-05T07:52:55.399Z,102411.35
2024-03-05T07:55:31.904Z,102415.30
2024-03-05T07:58:06.123Z,102416.13
2024-03-05T08:00:35.939Z,102414.66
2024-03-05T08:03:06.901Z,102414.23
2024-03-05T08:05:36.222Z,102413.27
2024-03-05T08:08:07.387Z,102418.80
2024-03-05T08:10:35.786Z,102418.77
2024-03-05T08:13:08.839Z,102420.25
2024-03-05T08:15:37.190Z,102418.17
2024-03-05T08:18:08.051Z,102414.23
2024-03-05T08:20:36.328Z,102411.56
2024-03-05T08:23:05.939Z,102417.30
2024-03-05T08:25:36.552Z,102417.99
2024-03-05T08:28:06.435Z,102419.79
2024-03-05T08:30:34.757Z,102423.89
2024-03-05T08:33:06.525Z,102423.87
2024-03-05T08:35:34.934Z,102425.08
2024-03-05T08:38:06.728Z,102427.80
2024-03-05T08:40:35.062Z,102433.30
2024-03-05T08:43:06.146Z,102432.38
2024-03-05T08:45:36.401Z,102429.64
2024-03-05T08:48:07.499Z,102432.46
2024-03-05T08:50:36.609Z,102440.35
2024-03-05T08:53:05.524Z,102441.95
2024-03-05T08:55:35.921Z,102440.95
2024-03-05T08:58:05.951Z,102441.58
2024-03-05T09:00:42.509Z,102442.13
2024-03-05T09:03:15.273Z,102445.98
2024-03-05T09:05:47.806Z,102448.63
2024-03-05T09:08:18.061Z,102447.64
2024-03-05T09:10:46.419Z,102446.70
2024-03-05T09:13:16.592Z,102448.61
2024-03-05T09:15:48.529Z,102449.10
2024-03-05T09:18:19.736Z,102453.48
2024-03-05T09:20:49.934Z,102455.98
2024-03-05T09:23:20.447Z,102462.69
2024-03-05T09:25:51.007Z,102463.65
2024-03-05T09:28:20.636Z,102464.52
2024-03-05T09:30:49.645Z,102468.70
2024-03-05T09:33:19.326Z,102467.23
2024-03-05T09:35:47.826Z,102463.97
2024-03-05T09:38:18.395Z,102464.89
2024-03-05T09:40:47.905Z,102464.18
2024-03-05T09:43:23.146Z,102466.16
2024-03-05T09:46:02.872Z,102466.17
2024-03-05T09:48:34.975Z,102472.89
2024-03-05T09:51:09.305Z,102470.39
2024-03-05T09:53:39.004Z,102472.89
2024-03-05T09:56:09.531Z,102478.61
2024-03-05T09:58:40.567Z,102474.05
2024-03-05T10:01:10.202Z,102476.73
2024-03-05T10:03:41.294Z,102479.05
2024-03-05T10:06:15.638Z,102480.07
2024-03-05T10:08:46.733Z,102479.45
2024-03-05T10:11:18.460Z,102483.29
2024-03-05T10:13:48.275Z,102483.00
2024-03-05T10:16:22.659Z,102478.36
2024-03-05T10:18:52.948Z,102483.63
2024-03-05T10:21:23.803Z,102483.66
2024-03-05T10:24:03.346Z,102480.80
2024-03-05T10:26:35.277Z,102480.30
2024-03-05T10:29:06.512Z,102482.34
2024-03-05T10:31:38.677Z,102484.48
2024-03-05T10:34:09.523Z,102485.88
2024-03-05T10:36:40.834Z,102487.63
2024-03-05T10:39:11.909Z,102490.77
2024-03-05T10:41:50.674Z,102490.33
2024-03-05T10:44:22.609Z,102488.77
2024-03-05T10:46:53.173Z,102493.32
2024-03-05T10:49:23.345Z,102490.46
2024-03-05T10:51:58.483Z,102497.94
2024-03-05T10:54:32.485Z,102495.14
2024-03-05T10:57:01.696Z,102498.66
2024-03-05T10:59:32.834Z,102497.80
2024-03-05T11:02:04.649Z,102498.36
2024-03-05T11:04:36.692Z,102500.66
2024-03-05T11:07:06.001Z,102494.98
2024-03-05T11:09:40.145Z,102494.08
2024-03-05T11:12:16.281Z,102490.81
2024-03-05T11:14:48.276Z,102498.23
2024-03-05T11:17:19.348Z,102501.25
2024-03-05T11:19:49.457Z,102503.58
2024-03-05T11:22:28.010Z,102500.65
2024-03-05T11:25:07.520Z,102494.33
2024-03-05T11:27:38.552Z,102490.48
2024-03-05T11:30:17.467Z,102487.48
2024-03-05T11:32:50.129Z,102485.14
2024-03-05T11:35:22.816Z,102477.48
2024-03-05T11:37:57.259Z,102474.36
2024-03-05T11:40:36.818Z,102477.02
2024-03-05T11:43:06.383Z,102473.70
2024-03-05T11:45:49.647Z,102469.00
2024-03-05T11:48:22.011Z,102465.20
2024-03-05T11:50:56.240Z,102464.80
2024-03-05T11:53:28.562Z,102461.75
2024-03-05T11:56:07.231Z,102461.29
2024-03-05T11:58:36.887Z,102459.68
2024-03-05T12:01:08.721Z,102460.66
2024-03-05T12:03:39.696Z,102464.60
2024-03-05T12:06:08.362Z,102454.19
2024-03-05T12:08:39.114Z,102455.94
2024-03-05T12:11:07.847Z,102448.16
2024-03-05T12:13:38.362Z,102451.83
2024-03-05T12:16:12.185Z,102456.70
2024-03-05T12:18:42.483Z,102454.51
2024-03-05T12:21:12.981Z,102455.12
2024-03-05T12:23:45.404Z,102454.92
2024-03-05T12:26:14.748Z,102455.34
2024-03-05T12:28:49.987Z,102457.24
2024-03-05T12:31:20.160Z,102452.72
2024-03-05T12:33:51.066Z,102450.44
2024-03-05T12:36:23.216Z,102454.53
2024-03-05T12:38:52.941Z,102453.60
2024-03-05T12:41:21.590Z,102456.34
2024-03-05T12:43:54.501Z,102455.35
2024-03-05T12:46:25.018Z,102453.05
2024-03-05T12:49:00.091Z,102455.88
2024-03-05T12:51:33.252Z,102455.30
2024-03-05T12:54:09.030Z,102453.13
2024-03-05T12:56:46.339Z,102448.06
2024-03-05T12:59:19.019Z,102447.69
2024-03-05T13:01:47.367Z,102447.03
2024-03-05T13:04:18.309Z,102447.27
2024-03-05T13:06:48.708Z,102441.64
2024-03-05T13:09:23.115Z,102442.22
2024-03-05T13:11:54.453Z,102435.05
2024-03-05T13:14:25.119Z,102436.88
2024-03-05T13:16:55.133Z,102440.03
2024-03-05T13:19:25.016Z,102443.41
2024-03-05T13:21:56.599Z,102440.70
2024-03-05T13:24:25.878Z,102441.35
2024-03-05T13:26:55.590Z,102437.83
2024-03-05T13:29:26.887Z,102431.56
2024-03-05T13:31:58.737Z,102433.06
2024-03-05T13:34:29.226Z,102432.45
2024-03-05T13:36:58.912Z,102431.89
2024-03-05T13:39:27.396Z,102430.84
2024-03-05T13:41:59.415Z,102423.50
2024-03-05T13:44:28.417Z,102422.36
2024-03-05T13:47:00.824Z,102419.36
2024-03-05T13:49:33.467Z,102420.75
2024-03-05T13:52:01.891Z,102417.29
2024-03-05T13:54:33.484Z,102411.52
2024-03-05T13:57:03.122Z,102415.87
2024-03-05T13:59:32.691Z,102418.92
2024-03-05T14:02:02.111Z,102416.72
2024-03-05T14:04:32.376Z,102415.91
2024-03-05T14:07:01.075Z,102415.94
2024-03-05T14:09:31.302Z,102414.61
2024-03-05T14:11:59.657Z,102411.64
2024-03-05T14:14:29.794Z,102410.84
2024-03-05T14:16:58.146Z,102408.23
2024-03-05T14:19:29.543Z,102409.48
2024-03-05T14:21:59.130Z,102412.93
2024-03-05T14:24:30.157Z,102408.26
2024-03-05T14:26:58.466Z,102410.17
2024-03-05T14:29:28.559Z,102407.07
2024-03-05T14:31:57.340Z,102406.05
2024-03-05T14:34:30.640Z,102403.74
2024-03-05T14:37:00.845Z,102401.86
2024-03-05T14:39:33.618Z,102398.13
2024-03-05T14:42:03.362Z,102397.77
2024-03-05T14:44:33.019Z,102398.55
2024-03-05T14:47:02.741Z,102399.00
2024-03-05T14:49:32.915Z,102397.39
2024-03-05T14:52:01.376Z,102394.51
2024-03-05T14:54:33.437Z,102392.93
2024-03-05T14:57:01.721Z,102399.73
2024-03-05T14:59:30.494Z,102399.60
2024-03-05T15:01:59.839Z,102397.64
2024-03-05T15:04:31.082Z,102394.60
2024-03-05T15:06:59.480Z,102397.52
2024-03-05T15:09:30.074Z,102395.89
2024-03-05T15:11:58.469Z,102392.10
2024-03-05T15:14:28.084Z,102390.19
2024-03-05T15:16:57.779Z,102386.48
2024-03-05T15:19:27.403Z,102390.11
2024-03-05T15:21:58.941Z,102386.30
2024-03-05T15:24:30.757Z,102387.92
2024-03-05T15:27:05.358Z,102385.42
2024-03-05T15:29:37.963Z,102388.15
2024-03-05T15:32:06.622Z,102391.10
2024-03-05T15:34:37.555Z,102397.33
2024-03-05T15:37:09.965Z,102400.72
2024-03-05T15:39:41.718Z,102402.34
2024-03-05T15:42:10.468Z,102400.92
2024-03-05T15:44:40.116Z,102403.18
2024-03-05T15:47:08.780Z,102396.52
2024-03-05T15:49:38.407Z,102395.43
2024-03-05T15:52:09.613Z,102396.92
2024-03-05T15:54:40.733Z,102394.52
2024-03-05T15:57:10.693Z,102394.79
2024-03-05T15:59:40.833Z,102396.91
2024-03-05T16:02:10.047Z,102397.77
2024-03-05T16:05:01.723Z,102400.29
2024-03-05T16:07:31.865Z,102400.23
2024-03-05T16:10:00.250Z,102405.98
2024-03-05T16:12:30.971Z,102405.71
2024-03-05T16:14:59.807Z,102406.52
2024-03-05T16:17:29.423Z,102406.79
2024-03-05T16:19:58.268Z,102405.11
2024-03-05T16:22:28.807Z,102408.28
2024-03-05T16:24:58.028Z,102411.25
2024-03-05T16:27:29.578Z,102407.27
2024-03-05T16:29:57.805Z,102404.21
2024-03-05T16:32:29.268Z,102409.70
2024-03-05T16:34:57.567Z,102415.44
2024-03-05T16:37:30.065Z,102414.02
2024-03-05T16:40:03.820Z,102419.05
2024-03-05T16:42:36.909Z,102415.13
2024-03-05T16:45:09.781Z,102417.55
2024-03-05T16:47:39.210Z,102416.54
2024-03-05T16:50:11.025Z,102418.08
2024-03-05T16:52:43.261Z,102421.35
2024-03-05T16:55:16.387Z,102419.42
2024-03-05T16:57:46.582Z,102420.21
2024-03-05T17:00:18.195Z,102424.79
2024-03-05T17:02:53.003Z,102426.45
2024-03-05T17:05:25.192Z,102432.09
2024-03-05T17:07:56.118Z,102434.81
2024-03-05T17:10:26.215Z,102432.37
2024-03-05T17:12:59.869Z,102429.63
2024-03-05T17:15:29.544Z,102429.47
2024-03-05T17:18:04.175Z,102428.70
2024-03-05T17:20:35.928Z,102431.64
2024-03-05T17:23:05.306Z,102429.20
2024-03-05T17:25:34.890Z,102434.03
2024-03-05T17:28:03.936Z,102433.23
2024-03-05T17:30:34.088Z,102438.07
2024-03-05T17:33:04.034Z,102436.04
2024-03-05T17:35:36.014Z,102438.35
2024-03-05T17:38:06.145Z,102439.92
2024-03-05T17:40:35.845Z,102440.77
2024-03-05T17:43:05.212Z,102441.23
2024-03-05T17:45:35.914Z,102442.41
2024-03-05T17:48:07.308Z,102448.55
2024-03-05T17:50:38.986Z,102446.98
2024-03-05T17:53:07.477Z,102452.82
2024-03-05T17:55:37.474Z,102454.51
2024-03-05T17:58:06.775Z,102453.10
2024-03-05T18:00:35.599Z,102454.58
2024-03-05T18:03:04.383Z,102459.52
2024-03-05T18:05:34.481Z,102463.14
2024-03-05T18:08:05.404Z,102459.05
2024-03-05T18:10:37.228Z,102461.08
2024-03-05T18:13:05.853Z,102466.88
2024-03-05T18:15:36.666Z,102461.88
2024-03-05T18:18:06.125Z,102462.54
2024-03-05T18:20:36.520Z,102462.24
2024-03-05T18:23:06.437Z,102463.52
2024-03-05T18:25:38.549Z,102459.94
2024-03-05T18:28:09.732Z,102458.45
2024-03-05T18:30:41.292Z,102457.73
2024-03-05T18:33:10.230Z,102457.55
2024-03-05T18:35:40.020Z,102455.59
2024-03-05T18:40:44.473Z,102454.49
2024-03-05T18:43:13.034Z,102451.92
2024-03-05T18:45:42.645Z,102452.46
2024-03-05T18:48:11.333Z,102455.85
2024-03-05T18:50:41.839Z,102455.61
2024-03-05T18:53:12.745Z,102453.75
2024-03-05T18:55:42.738Z,102456.96
2024-03-05T18:58:11.030Z,102461.39
2024-03-05T19:00:41.882Z,102464.03
2024-03-05T19:03:10.684Z,102457.58
2024-03-05T19:05:41.310Z,102463.29
2024-03-05T19:08:11.040Z,102462.33
2024-03-05T19:10:41.286Z,102460.63
2024-03-05T19:13:09.772Z,102466.08
2024-03-05T19:15:39.316Z,102466.55
2024-03-05T19:18:08.936Z,102470.52
2024-03-05T19:20:39.691Z,102474.01
2024-03-05T19:23:08.571Z,102473.94
2024-03-05T19:25:40.631Z,102481.64
2024-03-05T19:28:08.907Z,102481.29
2024-03-05T19:30:38.528Z,102481.76
2024-03-05T19:33:07.834Z,102486.58
2024-03-05T19:35:40.184Z,102483.08
2024-03-05T19:38:08.590Z,102489.52
2024-03-05T19:40:39.019Z,102486.73
2024-03-05T19:43:08.027Z,102487.96
2024-03-05T19:45:38.001Z,102488.80
2024-03-05T19:48:08.582Z,102489.63
2024-03-05T19:50:38.841Z,102498.42
2024-03-05T19:53:09.346Z,102499.09
2024-03-05T19:55:41.172Z,102506.08
2024-03-05T19:58:11.139Z,102508.89
2024-03-05T20:00:40.001Z,102511.33
2024-03-05T20:03:09.863Z,102509.24
2024-03-05T20:05:40.338Z,102513.86
2024-03-05T20:08:10.197Z,102516.31
2024-03-05T20:10:44.004Z,102514.04
2024-03-05T20:13:13.073Z,102519.16
2024-03-05T20:15:43.633Z,102517.78
2024-03-05T20:18:13.781Z,102523.13
2024-03-05T20:20:44.976Z,102528.66
2024-03-05T20:23:13.327Z,102525.52
2024-03-05T20:25:43.136Z,102522.14
2024-03-05T20:28:13.338Z,102524.38
2024-03-05T20:30:42.667Z,102521.61
2024-03-05T20:33:12.919Z,102526.73
2024-03-05T20:35:43.137Z,102532.06
2024-03-05T20:38:13.151Z,102527.98
2024-03-05T20:40:47.049Z,102529.55
2024-03-05T20:43:15.343Z,102530.55
2024-03-05T20:45:44.941Z,102531.86
2024-03-05T20:48:13.365Z,102532.49
2024-03-05T20:50:44.586Z,102530.40
2024-03-05T20:53:13.778Z,102532.79
2024-03-05T20:55:44.596Z,102532.17
2024-03-05T20:58:12.884Z,102530.08
2024-03-05T21:00:43.975Z,102540.45
2024-03-05T21:03:13.040Z,102542.15
2024-03-05T21:05:43.595Z,102541.90
2024-03-05T21:08:12.400Z,102542.55
2024-03-05T21:10:44.323Z,102543.72
2024-03-05T21:13:14.402Z,102542.53
2024-03-05T21:15:45.639Z,102548.55
2024-03-05T21:18:14.544Z,102549.52
2024-03-05T21:20:44.644Z,102552.50
2024-03-05T21:23:16.794Z,102555.84
2024-03-05T21:26:03.060Z,102561.51
2024-03-05T21:28:38.436Z,102565.15
2024-03-05T21:31:06.725Z,102565.05
2024-03-05T21:33:38.791Z,102564.89
2024-03-05T21:36:08.702Z,102562.08
2024-03-05T21:38:38.251Z,102567.17
2024-03-05T21:41:06.978Z,102565.73
2024-03-05T21:43:38.769Z,102564.70
2024-03-05T21:46:07.141Z,102571.20
2024-03-05T21:48:38.272Z,102572.69
2024-03-05T21:51:12.697Z,102571.30
2024-03-05T21:53:45.784Z,102567.92
2024-03-05T21:56:14.152Z,102566.33
2024-03-05T21:58:45.431Z,102570.70
2024-03-05T22:01:14.467Z,102574.19
2024-03-05T22:03:44.760Z,102577.48
2024-03-05T22:06:19.815Z,102577.89
2024-03-05T22:08:54.837Z,102579.23
2024-03-05T22:11:25.865Z,102579.86
2024-03-05T22:13:55.758Z,102580.81
2024-03-05T22:16:24.076Z,102584.48
2024-03-05T22:18:57.214Z,102583.47
2024-03-05T22:21:25.506Z,102582.42
2024-03-05T22:23:55.077Z,102583.23
2024-03-05T22:26:24.575Z,102587.63
2024-03-05T22:28:57.560Z,102588.40
2024-03-05T22:31:26.571Z,102592.46
2024-03-05T22:33:57.718Z,102591.61
2024-03-05T22:36:26.230Z,102594.20
2024-03-05T22:38:55.788Z,102594.80
2024-03-05T22:41:24.862Z,102595.57
2024-03-05T22:43:57.653Z,102598.89
2024-03-05T22:46:26.184Z,102603.84
2024-03-05T22:48:55.865Z,102606.96
2024-03-05T22:51:24.878Z,102606.00
2024-03-05T22:53:54.910Z,102607.70
2024-03-05T22:56:23.669Z,102603.27
2024-03-05T22:58:54.602Z,102603.89
2024-03-05T23:01:24.199Z,102602.70
2024-03-05T23:03:53.940Z,102609.08
2024-03-05T23:06:25.479Z,102607.30
2024-03-05T23:08:57.529Z,102608.29
2024-03-05T23:11:27.495Z,102610.69
2024-03-05T23:13:58.383Z,102606.09
2024-03-05T23:16:26.850Z,102604.34
2024-03-05T23:18:57.198Z,102604.20
2024-03-05T23:21:27.411Z,102605.70
2024-03-05T23:23:56.898Z,102599.61
2024-03-05T23:26:26.798Z,102595.02
2024-03-05T23:28:59.437Z,102594.31
2024-03-05T23:31:29.233Z,102592.90
2024-03-05T23:33:58.903Z,102592.98
2024-03-05T23:36:28.530Z,102590.70
2024-03-05T23:38:58.139Z,102588.75
2024-03-05T23:41:31.954Z,102588.27
2024-03-05T23:44:03.324Z,102584.17
2024-03-05T23:46:33.192Z,102587.66
2024-03-05T23:49:02.835Z,102588.06
2024-03-05T23:51:33.155Z,102587.20
2024-03-05T23:54:03.158Z,102588.00
2024-03-05T23:56:32.710Z,102591.10
2024-03-05T23:59:03.112Z,102590.80
